Time;durP1;ratioP1;P1;durP2;ratioP2;P2;SDS_P1;SDS_P2;PMS_P1;PMS_P2;Temp;Humidity;BMP_temperature;BMP_pressure;BME280_temperature;BME280_humidity;BME280_pressure;Samples;Min_cycle;Max_cycle;Signal;HPM_P1;HPM_P2
2023/05/16 00:00:35;;;;;;;10.48;8.15;;;;;;;;;;4994954;28;20023;-27
2023/05/16 00:03:02;;;;;;;10.02;9.10;;;;;;;;;;4994813;28;20031;-27
2023/05/16 00:05:28;;;;;;;8.40;7.68;;;;;;;;;;4994954;28;20030;-28
2023/05/16 00:07:54;;;;;;;8.90;8.18;;;;;;;;;;4994905;28;20026;-26
2023/05/16 00:10:20;;;;;;;9.45;8.57;;;;;;;;;;4994864;28;20093;-29
2023/05/16 00:12:50;;;;;;;9.32;8.48;;;;;;;;;;4994760;28;20445;-27
2023/05/16 00:15:16;;;;;;;9.95;8.77;;;;;;;;;;4994784;28;20046;-26
2023/05/16 00:17:46;;;;;;;9.77;8.35;;;;;;;;;;4995017;28;20030;-27
2023/05/16 00:20:21;;;;;;;9.57;8.65;;;;;;;;;;4994933;28;20117;-23
2023/05/16 00:22:47;;;;;;;10.85;8.35;;;;;;;;;;4994688;28;20451;-24
2023/05/16 00:25:14;;;;;;;8.65;7.82;;;;;;;;;;4995020;28;20037;-26
2023/05/16 00:27:40;;;;;;;9.43;8.52;;;;;;;;;;4994787;28;20026;-24
2023/05/16 00:30:06;;;;;;;13.65;9.45;;;;;;;;;;4994976;28;20026;-26
2023/05/16 00:32:32;;;;;;;9.23;8.45;;;;;;;;;;4998416;28;20092;-31
2023/05/16 00:34:59;;;;;;;9.77;9.07;;;;;;;;;;4998496;28;20026;-26
2023/05/16 00:37:25;;;;;;;8.27;7.68;;;;;;;;;;4998150;28;20018;-27
2023/05/16 00:39:51;;;;;;;8.73;7.80;;;;;;;;;;4998113;28;20026;-27
2023/05/16 00:42:19;;;;;;;8.77;8.07;;;;;;;;;;4998080;28;20026;-27
2023/05/16 00:44:45;;;;;;;8.60;7.95;;;;;;;;;;4998139;28;20416;-26
2023/05/16 00:47:11;;;;;;;8.63;7.88;;;;;;;;;;4998272;28;20109;-26
2023/05/16 00:49:38;;;;;;;8.98;8.18;;;;;;;;;;4998002;28;20473;-24
2023/05/16 00:52:04;;;;;;;8.07;7.32;;;;;;;;;;4997892;28;20041;-28
2023/05/16 00:54:30;;;;;;;9.63;8.70;;;;;;;;;;4998222;28;20034;-25
2023/05/16 00:56:57;;;;;;;8.77;7.95;;;;;;;;;;4997856;28;20361;-28
2023/05/16 00:59:23;;;;;;;11.20;8.15;;;;;;;;;;4981043;28;20033;-28
2023/05/16 01:01:50;;;;;;;9.05;8.25;;;;;;;;;;4997646;28;20033;-24
2023/05/16 01:04:17;;;;;;;9.80;8.82;;;;;;;;;;4997497;28;20042;-24
2023/05/16 01:06:43;;;;;;;10.65;8.50;;;;;;;;;;4997690;28;20041;-25
2023/05/16 01:09:11;;;;;;;8.60;7.90;;;;;;;;;;4997603;28;20030;-25
2023/05/16 01:11:46;;;;;;;8.38;7.57;;;;;;;;;;4997513;28;20035;-27
2023/05/16 01:14:29;;;;;;;8.88;8.15;;;;;;;;;;4980374;28;20054;-26
2023/05/16 01:17:27;;;;;;;9.90;8.32;;;;;;;;;;4997486;28;20023;-26
2023/05/16 01:20:14;;;;;;;9.48;7.30;;;;;;;;;;4955012;28;20134;-25
2023/05/16 01:22:46;;;;;;;9.15;8.27;;;;;;;;;;4997361;28;20045;-25
2023/05/16 01:25:27;;;;;;;9.85;8.50;;;;;;;;;;4997301;28;20026;-27
2023/05/16 01:27:53;;;;;;;8.60;7.75;;;;;;;;;;4997291;28;20035;-27
2023/05/16 01:30:20;;;;;;;9.30;8.50;;;;;;;;;;4997330;28;20054;-27
2023/05/16 01:32:46;;;;;;;8.88;7.43;;;;;;;;;;4997142;28;20034;-28
2023/05/16 01:35:14;;;;;;;8.25;7.70;;;;;;;;;;4997037;28;20476;-29
2023/05/16 01:37:48;;;;;;;9.68;8.63;;;;;;;;;;4997101;28;20053;-24
2023/05/16 01:40:34;;;;;;;7.93;7.20;;;;;;;;;;4997299;28;20030;-24
2023/05/16 01:43:03;;;;;;;8.25;7.55;;;;;;;;;;4978982;28;20033;-27
2023/05/16 01:45:32;;;;;;;9.45;8.55;;;;;;;;;;4997251;28;20096;-26
2023/05/16 01:48:03;;;;;;;8.77;7.82;;;;;;;;;;4996883;28;20022;-28
2023/05/16 01:50:32;;;;;;;8.43;7.60;;;;;;;;;;4997208;28;20030;-25
2023/05/16 01:53:08;;;;;;;8.88;7.70;;;;;;;;;;4996892;28;20018;-28
2023/05/16 01:55:34;;;;;;;9.00;8.27;;;;;;;;;;4997066;28;20357;-25
2023/05/16 01:58:02;;;;;;;9.25;7.35;;;;;;;;;;4996743;28;20031;-25
2023/05/16 02:00:28;;;;;;;8.07;7.35;;;;;;;;;;4996699;28;20057;-27
2023/05/16 02:02:54;;;;;;;8.07;7.30;;;;;;;;;;4996534;28;20030;-28
2023/05/16 02:05:21;;;;;;;7.25;6.72;;;;;;;;;;4996426;28;20069;-28
2023/05/16 02:07:47;;;;;;;7.50;6.80;;;;;;;;;;4996823;28;20489;-26
2023/05/16 02:10:13;;;;;;;7.85;7.30;;;;;;;;;;4979320;28;20109;-25
2023/05/16 02:12:39;;;;;;;8.25;7.60;;;;;;;;;;4996394;28;20056;-24
2023/05/16 02:15:06;;;;;;;8.07;7.38;;;;;;;;;;4996603;28;20346;-25
2023/05/16 02:17:32;;;;;;;9.23;8.43;;;;;;;;;;4963265;28;20045;-26
2023/05/16 02:20:05;;;;;;;8.73;8.02;;;;;;;;;;4996479;28;20041;-27
2023/05/16 02:22:31;;;;;;;8.27;7.68;;;;;;;;;;4996145;28;20030;-26
2023/05/16 02:24:57;;;;;;;7.80;7.20;;;;;;;;;;4996194;28;20024;-28
2023/05/16 02:27:23;;;;;;;7.68;7.07;;;;;;;;;;4996157;28;20456;-25
2023/05/16 02:29:49;;;;;;;7.88;7.18;;;;;;;;;;4996390;28;20117;-27
2023/05/16 02:32:16;;;;;;;9.35;8.48;;;;;;;;;;4996019;28;20038;-24
2023/05/16 02:34:42;;;;;;;7.80;7.20;;;;;;;;;;4996289;28;20085;-27
2023/05/16 02:37:08;;;;;;;8.05;7.28;;;;;;;;;;4996026;28;20026;-29
2023/05/16 02:39:34;;;;;;;8.43;7.82;;;;;;;;;;4995925;28;20026;-26
2023/05/16 02:42:00;;;;;;;8.07;7.28;;;;;;;;;;4996062;28;20402;-28
2023/05/16 02:44:26;;;;;;;7.97;7.28;;;;;;;;;;4996167;28;20097;-24
2023/05/16 02:46:53;;;;;;;7.90;7.28;;;;;;;;;;4996088;28;20053;-27
2023/05/16 02:49:19;;;;;;;8.77;7.90;;;;;;;;;;4996113;28;20150;-28
2023/05/16 02:51:46;;;;;;;7.32;6.72;;;;;;;;;;4995683;28;20026;-28
2023/05/16 02:54:12;;;;;;;8.20;7.50;;;;;;;;;;4995558;28;20062;-24
2023/05/16 02:56:38;;;;;;;7.55;6.90;;;;;;;;;;4995676;28;20027;-28
2023/05/16 02:59:05;;;;;;;10.52;7.82;;;;;;;;;;4978457;28;20018;-27
2023/05/16 03:01:31;;;;;;;8.10;7.43;;;;;;;;;;4995648;28;20050;-26
2023/05/16 03:03:57;;;;;;;7.90;7.20;;;;;;;;;;4995465;28;20133;-27
2023/05/16 03:06:23;;;;;;;8.35;7.75;;;;;;;;;;4995789;28;20093;-27
2023/05/16 03:08:49;;;;;;;12.40;7.93;;;;;;;;;;4995526;28;20030;-27
2023/05/16 03:11:19;;;;;;;8.00;7.40;;;;;;;;;;4978286;28;20026;-28
2023/05/16 03:13:45;;;;;;;7.82;7.28;;;;;;;;;;4995338;28;20022;-23
2023/05/16 03:16:12;;;;;;;7.10;6.55;;;;;;;;;;4995612;28;20374;-27
2023/05/16 03:18:38;;;;;;;8.15;7.57;;;;;;;;;;4995338;28;20058;-24
2023/05/16 03:21:04;;;;;;;7.78;7.07;;;;;;;;;;4978240;28;20022;-27
2023/05/16 03:23:30;;;;;;;8.77;7.68;;;;;;;;;;4995740;28;20319;-26
2023/05/16 03:25:56;;;;;;;7.95;7.30;;;;;;;;;;4995286;28;20042;-27
2023/05/16 03:28:23;;;;;;;8.25;7.55;;;;;;;;;;4995278;28;20030;-21
2023/05/16 03:30:49;;;;;;;7.93;7.35;;;;;;;;;;4995218;28;20050;-26
2023/05/16 03:33:15;;;;;;;8.15;7.55;;;;;;;;;;4977937;28;20084;-21
2023/05/16 03:35:42;;;;;;;7.03;6.43;;;;;;;;;;4995213;28;20438;-25
2023/05/16 03:38:08;;;;;;;8.05;7.45;;;;;;;;;;4995106;28;20062;-28
2023/05/16 03:40:34;;;;;;;7.35;6.70;;;;;;;;;;4995130;28;20027;-23
2023/05/16 03:43:01;;;;;;;7.75;6.95;;;;;;;;;;4995199;28;20409;-22
2023/05/16 03:45:27;;;;;;;7.15;6.63;;;;;;;;;;4995367;28;20370;-22
2023/05/16 03:47:53;;;;;;;7.47;6.75;;;;;;;;;;4995037;28;20077;-22
2023/05/16 03:50:19;;;;;;;7.68;7.00;;;;;;;;;;4995041;28;20394;-27
2023/05/16 03:52:45;;;;;;;7.93;6.60;;;;;;;;;;4995192;28;20365;-27
2023/05/16 03:55:13;;;;;;;7.78;7.18;;;;;;;;;;4995251;28;20023;-27
2023/05/16 03:57:41;;;;;;;7.20;6.60;;;;;;;;;;4994885;28;20101;-24
2023/05/16 04:00:11;;;;;;;7.80;7.20;;;;;;;;;;4994814;28;20045;-24
2023/05/16 04:02:39;;;;;;;7.63;7.13;;;;;;;;;;4994925;28;20025;-22
2023/05/16 04:05:06;;;;;;;8.05;7.45;;;;;;;;;;4994715;28;20042;-21
2023/05/16 04:07:32;;;;;;;7.00;6.43;;;;;;;;;;4998803;28;20104;-23
2023/05/16 04:09:58;;;;;;;6.93;6.30;;;;;;;;;;4998475;28;20034;-25
2023/05/16 04:12:25;;;;;;;7.70;7.10;;;;;;;;;;4998349;28;20031;-24
2023/05/16 04:14:51;;;;;;;7.00;6.40;;;;;;;;;;4998432;28;20027;-23
2023/05/16 04:17:17;;;;;;;7.28;6.78;;;;;;;;;;4998325;28;20033;-23
2023/05/16 04:19:44;;;;;;;7.32;6.75;;;;;;;;;;4998135;28;20031;-23
2023/05/16 04:22:10;;;;;;;7.53;6.82;;;;;;;;;;4998364;28;20026;-29
2023/05/16 04:24:36;;;;;;;7.22;6.72;;;;;;;;;;4981419;28;20427;-28
2023/05/16 04:27:03;;;;;;;7.03;6.63;;;;;;;;;;4998110;28;20039;-22
2023/05/16 04:29:31;;;;;;;11.68;7.32;;;;;;;;;;4998446;28;20041;-24
2023/05/16 04:31:57;;;;;;;8.38;6.75;;;;;;;;;;4998114;28;20351;-20
2023/05/16 04:34:26;;;;;;;8.15;7.22;;;;;;;;;;4997945;28;20026;-24
2023/05/16 04:36:53;;;;;;;8.00;7.07;;;;;;;;;;4998166;28;20050;-28
2023/05/16 04:39:19;;;;;;;9.10;6.97;;;;;;;;;;4997828;28;20026;-25
2023/05/16 04:41:45;;;;;;;9.30;7.38;;;;;;;;;;4997537;28;20022;-22
2023/05/16 04:44:11;;;;;;;9.68;6.68;;;;;;;;;;4997821;28;20089;-23
2023/05/16 04:46:38;;;;;;;7.40;6.78;;;;;;;;;;4997495;28;20030;-27
2023/05/16 04:49:04;;;;;;;7.07;6.30;;;;;;;;;;4997503;28;20027;-26
2023/05/16 04:51:32;;;;;;;7.45;6.85;;;;;;;;;;4997575;28;20034;-25
2023/05/16 04:53:58;;;;;;;7.50;6.85;;;;;;;;;;4980126;28;20093;-22
2023/05/16 04:56:25;;;;;;;6.65;6.07;;;;;;;;;;4997367;28;20373;-25
2023/05/16 04:58:53;;;;;;;10.05;6.72;;;;;;;;;;4997151;28;20065;-23
2023/05/16 05:01:19;;;;;;;7.15;5.70;;;;;;;;;;4997048;28;20472;-21
2023/05/16 05:03:46;;;;;;;7.68;7.00;;;;;;;;;;4997153;28;20046;-24
2023/05/16 05:06:12;;;;;;;9.63;7.18;;;;;;;;;;4997836;28;20088;-24
2023/05/16 05:08:38;;;;;;;7.45;6.80;;;;;;;;;;4997240;28;20083;-24
2023/05/16 05:11:04;;;;;;;6.75;6.30;;;;;;;;;;4997551;28;20046;-25
2023/05/16 05:13:31;;;;;;;7.40;6.75;;;;;;;;;;4997354;28;20105;-23
2023/05/16 05:15:57;;;;;;;8.18;6.93;;;;;;;;;;4997279;28;20018;-25
2023/05/16 05:18:23;;;;;;;7.40;6.50;;;;;;;;;;4995814;28;20026;-21
2023/05/16 05:20:51;;;;;;;6.93;6.32;;;;;;;;;;4997188;28;20057;-23
2023/05/16 05:23:18;;;;;;;7.47;6.75;;;;;;;;;;4997477;28;20031;-24
2023/05/16 05:25:45;;;;;;;7.47;6.78;;;;;;;;;;4997315;28;20049;-22
2023/05/16 05:28:11;;;;;;;7.68;6.22;;;;;;;;;;4997182;28;20097;-23
2023/05/16 05:30:37;;;;;;;13.15;7.88;;;;;;;;;;4997192;28;20022;-26
2023/05/16 05:33:03;;;;;;;8.38;6.63;;;;;;;;;;4996618;28;20030;-28
2023/05/16 05:35:29;;;;;;;6.95;6.38;;;;;;;;;;4996787;28;20049;-25
2023/05/16 05:37:55;;;;;;;6.72;6.13;;;;;;;;;;4996983;28;20038;-24
2023/05/16 05:40:21;;;;;;;9.68;5.80;;;;;;;;;;4996894;28;20030;-23
2023/05/16 05:42:48;;;;;;;7.00;6.28;;;;;;;;;;4979494;28;20080;-25
2023/05/16 05:45:15;;;;;;;8.27;6.32;;;;;;;;;;4996808;28;20030;-23
2023/05/16 05:47:41;;;;;;;6.55;5.95;;;;;;;;;;4996576;28;20407;-26
2023/05/16 05:50:10;;;;;;;6.90;6.28;;;;;;;;;;4996883;28;20030;-20
2023/05/16 05:52:36;;;;;;;10.98;7.28;;;;;;;;;;4996630;28;20052;-25
2023/05/16 05:55:02;;;;;;;18.40;7.68;;;;;;;;;;4996498;28;20053;-25
2023/05/16 05:57:28;;;;;;;5.97;5.57;;;;;;;;;;4996184;28;20126;-21
2023/05/16 05:59:54;;;;;;;8.90;6.07;;;;;;;;;;4996056;28;20026;-24
2023/05/16 06:02:20;;;;;;;7.45;6.85;;;;;;;;;;4996052;28;20018;-23
2023/05/16 06:04:47;;;;;;;8.70;6.75;;;;;;;;;;4975787;28;20551;-25
2023/05/16 06:07:14;;;;;;;7.55;6.85;;;;;;;;;;4976844;28;20061;-25
2023/05/16 06:09:41;;;;;;;7.53;5.97;;;;;;;;;;4976755;28;20077;-25
2023/05/16 06:12:08;;;;;;;7.47;6.78;;;;;;;;;;4977053;28;20354;-24
2023/05/16 06:14:34;;;;;;;6.10;5.45;;;;;;;;;;4976998;28;20101;-28
2023/05/16 06:17:00;;;;;;;7.57;6.07;;;;;;;;;;4976709;28;20058;-27
2023/05/16 06:19:27;;;;;;;6.82;6.13;;;;;;;;;;4976648;28;20045;-28
2023/05/16 06:21:53;;;;;;;8.30;6.60;;;;;;;;;;4976670;28;20023;-23
2023/05/16 06:24:20;;;;;;;7.07;6.38;;;;;;;;;;4976705;28;20105;-24
2023/05/16 06:26:48;;;;;;;7.30;6.57;;;;;;;;;;4976956;28;20030;-28
2023/05/16 06:29:15;;;;;;;6.40;5.75;;;;;;;;;;4976586;28;20038;-24
2023/05/16 06:31:41;;;;;;;8.38;6.10;;;;;;;;;;4976598;28;20153;-24
2023/05/16 06:34:07;;;;;;;8.30;6.18;;;;;;;;;;4975467;28;20358;-24
2023/05/16 06:36:33;;;;;;;8.02;6.53;;;;;;;;;;4976692;28;20468;-24
2023/05/16 06:39:00;;;;;;;7.20;6.30;;;;;;;;;;4976310;28;20030;-27
2023/05/16 06:41:26;;;;;;;6.57;6.07;;;;;;;;;;4976640;28;20105;-27
2023/05/16 06:43:52;;;;;;;6.55;5.65;;;;;;;;;;4976212;28;20041;-27
2023/05/16 06:46:18;;;;;;;8.02;5.93;;;;;;;;;;4976144;28;20027;-25
2023/05/16 06:48:44;;;;;;;7.32;5.93;;;;;;;;;;4976046;28;20022;-28
2023/05/16 06:51:10;;;;;;;8.70;7.32;;;;;;;;;;4976441;28;20331;-27
2023/05/16 06:53:37;;;;;;;12.18;6.47;;;;;;;;;;4976155;28;20413;-25
2023/05/16 06:56:03;;;;;;;9.90;7.45;;;;;;;;;;4976105;28;20026;-21
2023/05/16 06:58:29;;;;;;;17.77;6.20;;;;;;;;;;4975752;28;20065;-22
2023/05/16 07:00:55;;;;;;;9.13;6.40;;;;;;;;;;4976078;28;20401;-26
2023/05/16 07:03:21;;;;;;;8.57;6.57;;;;;;;;;;4977913;28;20358;-23
2023/05/16 07:05:50;;;;;;;12.50;6.55;;;;;;;;;;4977957;28;20461;-24
2023/05/16 07:08:16;;;;;;;7.10;5.97;;;;;;;;;;4995173;28;20453;-30
2023/05/16 07:10:42;;;;;;;11.18;6.05;;;;;;;;;;4995157;28;20026;-29
2023/05/16 07:13:10;;;;;;;8.00;6.53;;;;;;;;;;4995329;28;20077;-29
2023/05/16 07:15:36;;;;;;;9.48;6.70;;;;;;;;;;4995386;28;20030;-28
2023/05/16 07:18:02;;;;;;;8.35;6.90;;;;;;;;;;4995271;28;20045;-22
2023/05/16 07:20:28;;;;;;;11.02;7.03;;;;;;;;;;4977831;28;20030;-26
2023/05/16 07:22:56;;;;;;;11.40;6.18;;;;;;;;;;4994996;28;20026;-27
2023/05/16 07:25:23;;;;;;;11.65;6.53;;;;;;;;;;4995008;28;20026;-24
2023/05/16 07:27:49;;;;;;;7.38;6.80;;;;;;;;;;4995013;28;20382;-22
2023/05/16 07:30:15;;;;;;;7.95;6.70;;;;;;;;;;4994855;28;20035;-26
2023/05/16 07:32:42;;;;;;;7.20;6.13;;;;;;;;;;4994769;28;20076;-27
2023/05/16 07:35:08;;;;;;;8.10;6.68;;;;;;;;;;4994984;28;20022;-26
2023/05/16 07:37:35;;;;;;;12.07;6.65;;;;;;;;;;4994862;28;20022;-28
2023/05/16 07:40:02;;;;;;;9.32;6.60;;;;;;;;;;4994927;28;20031;-21
2023/05/16 07:42:28;;;;;;;10.05;6.72;;;;;;;;;;4998783;28;20070;-24
2023/05/16 07:44:55;;;;;;;10.93;6.18;;;;;;;;;;4998839;28;20022;-22
2023/05/16 07:47:22;;;;;;;10.57;6.03;;;;;;;;;;4998612;28;20030;-25
2023/05/16 07:49:48;;;;;;;9.10;6.10;;;;;;;;;;4998660;28;20053;-24
2023/05/16 07:52:14;;;;;;;18.83;6.15;;;;;;;;;;4998560;28;20034;-26
2023/05/16 07:54:40;;;;;;;18.10;6.43;;;;;;;;;;4998811;28;20023;-25
2023/05/16 07:57:06;;;;;;;12.93;6.57;;;;;;;;;;4998762;28;20026;-25
2023/05/16 07:59:32;;;;;;;12.20;7.07;;;;;;;;;;4998542;28;20361;-23
2023/05/16 08:01:59;;;;;;;9.82;6.65;;;;;;;;;;4998511;28;20403;-22
2023/05/16 08:04:25;;;;;;;11.48;6.97;;;;;;;;;;4998402;28;20125;-24
2023/05/16 08:06:51;;;;;;;16.17;6.72;;;;;;;;;;4998423;28;20022;-24
2023/05/16 08:09:18;;;;;;;12.13;6.95;;;;;;;;;;4998702;28;20398;-27
2023/05/16 08:11:45;;;;;;;10.05;6.78;;;;;;;;;;4998510;28;20026;-23
2023/05/16 08:14:11;;;;;;;9.18;7.20;;;;;;;;;;4998301;28;20057;-21
2023/05/16 08:16:37;;;;;;;8.75;6.55;;;;;;;;;;4998523;28;20027;-24
2023/05/16 08:19:03;;;;;;;7.82;6.38;;;;;;;;;;4998148;28;20030;-22
2023/05/16 08:21:30;;;;;;;7.80;5.80;;;;;;;;;;4981069;28;20034;-25
2023/05/16 08:23:56;;;;;;;11.10;5.95;;;;;;;;;;4998209;28;20049;-24
2023/05/16 08:26:23;;;;;;;7.63;6.03;;;;;;;;;;4998382;28;20057;-23
2023/05/16 08:28:50;;;;;;;21.25;6.20;;;;;;;;;;4997947;28;20053;-25
2023/05/16 08:31:16;;;;;;;9.43;6.78;;;;;;;;;;4997710;28;20049;-25
2023/05/16 08:33:42;;;;;;;18.23;7.32;;;;;;;;;;4998060;28;20327;-24
2023/05/16 08:36:11;;;;;;;11.25;6.57;;;;;;;;;;4998276;28;20334;-25
2023/05/16 08:38:37;;;;;;;13.30;5.93;;;;;;;;;;4997732;28;20030;-25
2023/05/16 08:41:04;;;;;;;12.60;6.97;;;;;;;;;;4998344;28;20023;-29
2023/05/16 08:43:30;;;;;;;13.45;6.57;;;;;;;;;;4997842;28;20054;-24
2023/05/16 08:45:56;;;;;;;10.82;6.82;;;;;;;;;;4997887;28;20038;-22
2023/05/16 08:48:23;;;;;;;8.23;6.68;;;;;;;;;;4980646;28;20037;-24
2023/05/16 08:50:50;;;;;;;15.32;6.70;;;;;;;;;;4997806;28;20512;-27
2023/05/16 08:53:21;;;;;;;12.75;6.82;;;;;;;;;;4997439;28;20468;-23
2023/05/16 08:55:47;;;;;;;15.98;6.65;;;;;;;;;;4997662;28;20057;-24
2023/05/16 08:58:14;;;;;;;7.47;6.15;;;;;;;;;;4997598;28;20157;-23
2023/05/16 09:00:40;;;;;;;10.90;6.43;;;;;;;;;;4997471;28;20033;-28
2023/05/16 09:03:07;;;;;;;9.02;6.22;;;;;;;;;;4997387;28;20042;-24
2023/05/16 09:05:33;;;;;;;12.18;6.63;;;;;;;;;;4998513;28;20113;-25
2023/05/16 09:07:59;;;;;;;10.88;6.03;;;;;;;;;;4997695;28;20386;-25
2023/05/16 09:10:25;;;;;;;7.15;6.45;;;;;;;;;;4997963;28;20041;-23
2023/05/16 09:12:52;;;;;;;7.47;6.57;;;;;;;;;;4997324;28;20034;-24
2023/05/16 09:15:18;;;;;;;11.65;6.57;;;;;;;;;;4997645;28;20436;-26
2023/05/16 09:17:45;;;;;;;10.38;6.30;;;;;;;;;;4997332;28;20058;-23
2023/05/16 09:20:13;;;;;;;7.43;6.72;;;;;;;;;;4997480;28;20045;-23
2023/05/16 09:22:40;;;;;;;18.35;6.85;;;;;;;;;;4997218;28;20022;-25
2023/05/16 09:25:06;;;;;;;8.95;7.70;;;;;;;;;;4997087;28;20026;-21
2023/05/16 09:27:33;;;;;;;7.30;6.47;;;;;;;;;;4997253;28;20102;-22
2023/05/16 09:29:59;;;;;;;7.65;6.88;;;;;;;;;;4997150;28;20034;-21
2023/05/16 09:32:26;;;;;;;6.50;5.90;;;;;;;;;;4997141;28;20022;-29
2023/05/16 09:34:53;;;;;;;8.70;6.63;;;;;;;;;;4996894;28;20105;-22
2023/05/16 09:37:19;;;;;;;8.48;6.25;;;;;;;;;;4996752;28;20026;-29
2023/05/16 09:39:47;;;;;;;19.23;7.68;;;;;;;;;;4996857;28;20030;-27
2023/05/16 09:42:16;;;;;;;10.93;6.47;;;;;;;;;;4996767;28;20061;-23
2023/05/16 09:44:46;;;;;;;12.95;6.97;;;;;;;;;;4996509;28;20097;-22
2023/05/16 09:47:19;;;;;;;8.00;6.45;;;;;;;;;;4996950;28;20313;-23
2023/05/16 09:49:47;;;;;;;13.57;6.60;;;;;;;;;;4996858;28;20047;-25
2023/05/16 09:52:14;;;;;;;11.07;6.53;;;;;;;;;;4996920;28;20041;-24
2023/05/16 09:54:40;;;;;;;14.55;6.85;;;;;;;;;;4997066;28;20030;-27
2023/05/16 09:57:06;;;;;;;11.00;7.22;;;;;;;;;;4979603;28;20026;-24
2023/05/16 09:59:41;;;;;;;11.75;6.20;;;;;;;;;;4963955;28;20074;-24
2023/05/16 10:02:08;;;;;;;10.02;6.82;;;;;;;;;;4996712;28;20047;-25
2023/05/16 10:04:34;;;;;;;11.18;6.00;;;;;;;;;;4995841;28;20120;-25
2023/05/16 10:07:02;;;;;;;8.48;6.38;;;;;;;;;;4996420;28;20101;-28
2023/05/16 10:09:29;;;;;;;6.63;6.03;;;;;;;;;;4996294;28;20030;-22
2023/05/16 10:11:56;;;;;;;13.23;7.47;;;;;;;;;;4996512;28;20029;-28
2023/05/16 10:14:23;;;;;;;10.77;7.15;;;;;;;;;;4996218;28;20096;-26
2023/05/16 10:16:49;;;;;;;13.23;6.07;;;;;;;;;;4996398;28;20101;-25
2023/05/16 10:19:16;;;;;;;14.38;6.80;;;;;;;;;;4996387;28;20030;-23
2023/05/16 10:21:46;;;;;;;9.68;6.63;;;;;;;;;;4996404;28;20349;-25
2023/05/16 10:24:14;;;;;;;8.50;6.18;;;;;;;;;;4996179;28;20031;-26
2023/05/16 10:26:40;;;;;;;13.65;6.68;;;;;;;;;;4996366;28;20358;-24
2023/05/16 10:29:07;;;;;;;11.45;6.78;;;;;;;;;;4996235;28;20466;-25
2023/05/16 10:31:33;;;;;;;9.80;6.43;;;;;;;;;;4996288;28;20318;-26
2023/05/16 10:33:59;;;;;;;8.20;6.30;;;;;;;;;;4995836;28;20030;-24
2023/05/16 10:36:25;;;;;;;8.85;7.00;;;;;;;;;;4978565;28;20045;-23
2023/05/16 10:38:52;;;;;;;9.90;6.70;;;;;;;;;;4995740;28;20097;-25
2023/05/16 10:41:18;;;;;;;10.13;7.10;;;;;;;;;;4995773;28;20036;-25
2023/05/16 10:43:45;;;;;;;8.38;7.13;;;;;;;;;;4995704;28;20077;-28
2023/05/16 10:46:12;;;;;;;12.25;7.43;;;;;;;;;;4995920;28;20026;-23
2023/05/16 10:48:40;;;;;;;8.93;6.68;;;;;;;;;;4995712;28;20417;-26
2023/05/16 10:51:24;;;;;;;11.15;6.95;;;;;;;;;;4995634;28;20097;-24
2023/05/16 10:53:51;;;;;;;17.30;7.18;;;;;;;;;;4995482;28;20032;-24
2023/05/16 10:56:22;;;;;;;12.10;6.82;;;;;;;;;;4995633;28;20102;-28
2023/05/16 10:58:49;;;;;;;7.60;6.82;;;;;;;;;;4995456;28;20026;-27
2023/05/16 11:01:15;;;;;;;11.45;7.03;;;;;;;;;;4995441;28;20023;-26
2023/05/16 11:03:59;;;;;;;6.57;5.85;;;;;;;;;;4995413;28;20048;-24
2023/05/16 11:06:26;;;;;;;7.68;7.00;;;;;;;;;;4995734;28;20457;-23
2023/05/16 11:08:58;;;;;;;13.77;7.82;;;;;;;;;;4995403;28;20038;-27
2023/05/16 11:11:45;;;;;;;11.07;6.43;;;;;;;;;;4995638;28;20327;-25
2023/05/16 11:14:17;;;;;;;12.73;6.75;;;;;;;;;;4995572;28;20106;-24
2023/05/16 11:16:47;;;;;;;14.02;6.90;;;;;;;;;;4995317;28;20050;-27
2023/05/16 11:19:13;;;;;;;10.18;7.07;;;;;;;;;;4995500;28;20030;-26
2023/05/16 11:21:58;;;;;;;12.52;6.90;;;;;;;;;;4995483;28;20109;-25
2023/05/16 11:24:29;;;;;;;9.48;6.35;;;;;;;;;;4977875;28;20077;-25
2023/05/16 11:26:55;;;;;;;8.50;6.13;;;;;;;;;;4995320;28;20022;-24
2023/05/16 11:29:21;;;;;;;10.20;6.07;;;;;;;;;;4977923;28;20468;-21
2023/05/16 11:31:48;;;;;;;8.07;6.50;;;;;;;;;;4994993;28;20041;-22
2023/05/16 11:34:14;;;;;;;14.02;5.95;;;;;;;;;;4994874;28;20038;-23
2023/05/16 11:36:40;;;;;;;12.23;6.60;;;;;;;;;;4995015;28;20156;-24
2023/05/16 11:39:09;;;;;;;9.95;6.07;;;;;;;;;;4995088;28;20030;-33
2023/05/16 11:41:35;;;;;;;14.20;7.00;;;;;;;;;;4994946;28;20075;-24
2023/05/16 11:44:01;;;;;;;7.97;7.00;;;;;;;;;;4994973;28;20026;-25
2023/05/16 11:46:28;;;;;;;13.73;8.18;;;;;;;;;;4977707;28;20027;-27
2023/05/16 11:48:54;;;;;;;11.52;6.72;;;;;;;;;;4994745;28;20098;-25
2023/05/16 11:51:21;;;;;;;9.55;6.28;;;;;;;;;;4995048;28;20038;-25
2023/05/16 11:53:51;;;;;;;14.18;6.82;;;;;;;;;;4995031;28;20383;-24
2023/05/16 11:56:18;;;;;;;9.57;6.65;;;;;;;;;;4994770;28;20050;-26
2023/05/16 11:58:44;;;;;;;11.15;6.30;;;;;;;;;;4994940;28;20452;-26
2023/05/16 12:01:10;;;;;;;10.32;6.55;;;;;;;;;;4994574;28;20093;-25
2023/05/16 12:03:37;;;;;;;6.97;6.35;;;;;;;;;;4994472;28;20035;-24
2023/05/16 12:06:04;;;;;;;9.93;6.38;;;;;;;;;;4994633;28;20150;-25
2023/05/16 12:08:30;;;;;;;16.80;6.72;;;;;;;;;;4977792;28;20026;-25
2023/05/16 12:10:56;;;;;;;10.52;5.88;;;;;;;;;;4994710;28;20026;-24
2023/05/16 12:13:23;;;;;;;10.40;6.63;;;;;;;;;;4995074;28;20097;-28
2023/05/16 12:15:51;;;;;;;7.55;5.97;;;;;;;;;;4994806;28;20018;-26
2023/05/16 12:18:18;;;;;;;10.85;6.43;;;;;;;;;;4994604;28;20454;-25
2023/05/16 12:20:44;;;;;;;15.38;6.18;;;;;;;;;;4994550;28;20438;-25
2023/05/16 12:23:11;;;;;;;15.05;6.07;;;;;;;;;;4994439;28;20057;-24
2023/05/16 12:25:44;;;;;;;13.77;6.72;;;;;;;;;;4977272;28;20070;-22
2023/05/16 12:28:12;;;;;;;8.75;6.88;;;;;;;;;;4997781;28;20331;-25
2023/05/16 12:30:41;;;;;;;7.35;6.32;;;;;;;;;;4998294;28;20030;-25
2023/05/16 12:33:11;;;;;;;9.18;6.15;;;;;;;;;;4980699;28;20033;-26
2023/05/16 12:35:38;;;;;;;13.23;7.05;;;;;;;;;;4998478;28;20513;-24
2023/05/16 12:38:06;;;;;;;16.33;8.00;;;;;;;;;;4998131;28;20030;-24
2023/05/16 12:40:32;;;;;;;12.48;6.38;;;;;;;;;;4997806;28;20030;-23
2023/05/16 12:42:59;;;;;;;13.40;7.07;;;;;;;;;;4998029;28;20110;-23
2023/05/16 12:45:26;;;;;;;14.32;6.65;;;;;;;;;;4997997;28;20042;-26
2023/05/16 12:47:53;;;;;;;10.10;5.88;;;;;;;;;;4997944;28;20038;-26
2023/05/16 12:50:19;;;;;;;9.93;6.53;;;;;;;;;;4997704;28;20022;-27
2023/05/16 12:52:52;;;;;;;9.20;5.82;;;;;;;;;;4997602;28;20029;-26
2023/05/16 12:55:19;;;;;;;8.35;7.45;;;;;;;;;;4997888;28;20138;-26
2023/05/16 12:57:49;;;;;;;8.40;6.22;;;;;;;;;;4998055;28;20100;-24
2023/05/16 13:00:17;;;;;;;7.80;5.60;;;;;;;;;;4997691;28;20101;-25
2023/05/16 13:02:44;;;;;;;11.85;6.25;;;;;;;;;;4997616;28;20474;-23
2023/05/16 13:05:10;;;;;;;8.50;6.07;;;;;;;;;;4997403;28;20414;-25
2023/05/16 13:07:39;;;;;;;11.30;6.05;;;;;;;;;;4997389;28;20026;-27
2023/05/16 13:10:09;;;;;;;9.52;6.28;;;;;;;;;;4980175;28;20022;-22
2023/05/16 13:12:35;;;;;;;10.45;5.93;;;;;;;;;;4997118;28;20046;-29
2023/05/16 13:15:01;;;;;;;12.90;5.65;;;;;;;;;;4997703;28;20026;-22
2023/05/16 13:17:29;;;;;;;12.68;8.00;;;;;;;;;;4997741;28;20087;-24
2023/05/16 13:19:55;;;;;;;7.35;5.90;;;;;;;;;;4997183;28;20038;-26
2023/05/16 13:22:21;;;;;;;12.55;6.13;;;;;;;;;;4997513;28;20018;-24
2023/05/16 13:24:48;;;;;;;10.98;5.88;;;;;;;;;;4997620;28;20022;-27
2023/05/16 13:27:17;;;;;;;7.13;5.78;;;;;;;;;;4997311;28;20331;-26
2023/05/16 13:29:44;;;;;;;7.78;6.15;;;;;;;;;;4997553;28;20030;-23
2023/05/16 13:32:10;;;;;;;8.48;5.40;;;;;;;;;;4997186;28;20026;-26
2023/05/16 13:34:36;;;;;;;16.13;5.70;;;;;;;;;;4997109;28;20034;-26
2023/05/16 13:37:02;;;;;;;13.30;7.85;;;;;;;;;;4997043;28;20041;-24
2023/05/16 13:39:28;;;;;;;20.08;6.68;;;;;;;;;;4995755;28;20093;-24
2023/05/16 13:41:54;;;;;;;14.05;6.25;;;;;;;;;;4996947;28;20052;-27
2023/05/16 13:44:21;;;;;;;10.30;6.32;;;;;;;;;;4996931;28;20026;-28
2023/05/16 13:46:47;;;;;;;11.13;5.32;;;;;;;;;;4979764;28;20027;-22
2023/05/16 13:49:13;;;;;;;8.50;6.57;;;;;;;;;;4997343;28;20061;-27
2023/05/16 13:51:40;;;;;;;11.13;6.22;;;;;;;;;;4996861;28;20034;-26
2023/05/16 13:54:06;;;;;;;11.23;5.63;;;;;;;;;;4996645;28;20034;-25
2023/05/16 13:56:32;;;;;;;7.85;5.82;;;;;;;;;;4997024;28;20453;-23
2023/05/16 13:58:58;;;;;;;12.68;6.55;;;;;;;;;;4979496;28;20065;-24
2023/05/16 14:01:24;;;;;;;17.65;7.20;;;;;;;;;;4996873;28;20449;-24
2023/05/16 14:03:52;;;;;;;18.27;6.10;;;;;;;;;;4996205;28;20489;-25
2023/05/16 14:06:18;;;;;;;11.27;6.38;;;;;;;;;;4996559;28;20022;-25
2023/05/16 14:08:44;;;;;;;9.50;6.00;;;;;;;;;;4979259;28;20030;-26
2023/05/16 14:11:11;;;;;;;9.23;6.20;;;;;;;;;;4996421;28;20026;-28
2023/05/16 14:13:39;;;;;;;8.50;5.85;;;;;;;;;;4996243;28;20032;-23
2023/05/16 14:16:06;;;;;;;9.93;5.75;;;;;;;;;;4996271;28;20018;-23
2023/05/16 14:18:32;;;;;;;11.27;6.10;;;;;;;;;;4996403;28;20026;-24
2023/05/16 14:20:58;;;;;;;9.38;6.20;;;;;;;;;;4996100;28;20489;-23
2023/05/16 14:23:24;;;;;;;10.63;5.88;;;;;;;;;;4995979;28;20026;-28
2023/05/16 14:25:51;;;;;;;11.85;6.28;;;;;;;;;;4995730;28;20030;-26
2023/05/16 14:28:17;;;;;;;5.28;4.88;;;;;;;;;;4978576;28;20026;-22
2023/05/16 14:30:43;;;;;;;9.70;5.35;;;;;;;;;;4995853;28;20069;-24
2023/05/16 14:33:09;;;;;;;14.35;5.90;;;;;;;;;;4996639;28;20034;-22
2023/05/16 14:35:37;;;;;;;9.13;5.07;;;;;;;;;;4996206;28;20377;-24
2023/05/16 14:38:03;;;;;;;15.35;6.00;;;;;;;;;;4995930;28;20038;-24